Latest Weather Observations for Jabiru

IDD60801

Issued at 3:51 am CST Thursday 6 October 2022 (issued every 10 minutes, with the page automatically refreshed every 10 minutes)

About weather observations | Map of weather stations | Latest weather observations for NT | Other Formats
Station Details ID: 014198 Name: JABIRU AIRPORT Lat: -12.66 Lon: 132.89 Height: 26.5 m
Data from the previous 72 hours. | See also: Recent months at Jabiru
Date/Time
CST
Temp
°C
App
Temp
°C
Dew
Point
°C
Rel
Hum
%
Delta-T
°C
Wind Press
QNH
hPa
Press
MSL
hPa
Rain since
9am
mm
Dir  Spd
km/h
Gust
km/h
Spd
kts
Gust
kts
06/03:30am 27.5 33.3 23.9 81 2.5 CALM 0 0 0 0 1010.3 1010.0 0.0
06/03:00am 27.3 33.0 23.7 81 2.5 CALM 0 0 0 0 1010.2 1009.9 0.0
06/02:30am 27.2 33.0 23.9 82 2.3 CALM 0 0 0 0 1010.4 1010.1 0.0
06/02:00am 27.6 32.7 23.4 78 2.9 NE 2 6 1 3 1010.5 1010.2 0.0
06/01:30am 27.6 31.8 23.4 78 2.9 NNE 7 9 4 5 1010.6 1010.3 0.0
06/01:00am 27.9 32.0 23.3 76 3.1 ENE 7 9 4 5 1010.7 1010.4 0.0
06/12:30am 28.3 32.0 23.2 74 3.5 ENE 9 13 5 7 1011.1 1010.9 0.0
06/12:00am 28.5 31.9 22.7 71 3.9 NE 9 13 5 7 1011.4 1011.2 0.0
 
Date/Time
CST
Temp
°C
App
Temp
°C
Dew
Point
°C
Rel
Hum
%
Delta-T
°C
Wind Press
QNH
hPa
Press
MSL
hPa
Rain since
9am
mm
Dir  Spd
km/h
Gust
km/h
Spd
kts
Gust
kts
05/11:30pm 28.7 31.1 22.2 68 4.4 NE 13 20 7 11 1011.7 1011.5 0.0
05/11:00pm 29.1 30.8 21.6 64 5.0 NE 15 20 8 11 1011.8 1011.6 0.0
05/10:30pm 29.4 31.0 21.4 62 5.4 NE 15 24 8 13 1011.9 1011.7 0.0
05/10:00pm 29.1 33.1 23.1 70 4.1 N 7 11 4 6 1011.6 1011.4 0.0
05/09:30pm 29.9 33.8 22.9 66 4.8 NNW 7 9 4 5 1011.2 1011.0 0.0
05/09:00pm 30.5 34.3 22.7 63 5.3 NNE 7 9 4 5 1010.6 1010.3 0.0
05/08:30pm 31.1 34.0 22.4 60 5.9 N 11 15 6 8 1010.2 1009.9 0.0
05/08:00pm 31.3 34.3 22.0 57 6.3 NNW 9 13 5 7 1009.6 1009.3 0.0
05/07:30pm 32.1 34.3 21.9 54 6.9 N 13 19 7 10 1009.1 1008.8 0.0
05/07:00pm 32.8 35.6 21.6 51 7.6 NNW 9 15 5 8 1008.7 1008.4 0.0
05/06:30pm 33.8 35.9 20.2 44 9.1 N 9 15 5 8 1008.2 1007.9 0.0
05/06:00pm 35.2 36.6 17.9 36 11.3 NNE 7 9 4 5 1007.8 1007.6 0.0
05/05:30pm 35.6 36.4 17.3 33 11.8 ENE 9 13 5 7 1007.4 1007.2 0.0
05/05:00pm 35.8 35.3 17.9 34 11.6 ENE 17 20 9 11 1007.3 1007.1 0.0
05/04:30pm 36.5 37.4 17.6 32 12.3 NE 9 15 5 8 1007.2 1007.0 0.0
05/04:00pm 36.3 36.4 18.4 35 11.7 ENE 15 19 8 10 1007.3 1007.1 0.0
05/03:30pm 35.9 36.6 17.1 32 12.1 ESE 9 15 5 8 1007.5 1007.3 0.0
05/03:00pm 35.8 37.1 18.4 35 11.4 ESE 9 15 5 8 1007.8 1007.6 0.0
05/02:30pm 35.1 36.1 17.8 36 11.2 ESE 9 15 5 8 1008.2 1007.9 0.0
05/02:00pm 35.4 37.1 19.3 38 10.7 SE 9 19 5 10 1008.7 1008.4 0.0
05/01:30pm 35.3 36.7 19.6 39 10.4 NE 11 17 6 9 1009.4 1009.1 0.0
05/01:00pm 34.4 37.1 22.1 48 8.4 SE 11 19 6 10 1009.9 1009.6 0.0
05/12:30pm 34.1 35.7 22.2 50 8.2 E 17 22 9 12 1010.6 1010.3 0.0
05/12:00pm 33.1 35.1 21.6 51 7.8 E 13 26 7 14 1011.2 1011.0 0.0
05/11:30am 32.2 35.4 22.3 56 6.8 ESE 9 19 5 10 1011.8 1011.6 0.0
05/11:00am 31.8 34.8 21.9 55 6.7 ENE 9 15 5 8 1012.2 1012.0 0.0
05/10:30am 31.5 34.6 22.2 57 6.3 E 9 17 5 9 1012.6 1012.4 0.0
05/10:00am 30.5 33.2 22.1 61 5.7 E 11 15 6 8 1012.7 1012.5 0.0
05/09:30am 30.2 33.6 23.4 67 4.7 ENE 11 15 6 8 1012.7 1012.5 0.0
05/09:00am 29.1 32.3 23.1 70 4.1 ESE 11 17 6 9 1012.6 1012.4 19.2
05/08:30am 28.5 32.2 23.2 73 3.6 E 9 13 5 7 1012.1 1011.9 19.2
05/08:00am 27.4 31.0 23.0 77 3.0 E 9 13 5 7 1011.7 1011.5 19.2
05/07:30am 26.8 30.8 23.1 80 2.5 ESE 7 13 4 7 1011.2 1011.0 19.2
05/07:00am 25.3 29.4 23.0 87 1.6 E 6 7 3 4 1010.6 1010.3 19.2
05/06:30am 24.3 29.6 23.1 93 0.8 CALM 0 0 0 0 1010.1 1009.8 19.2
05/06:00am 24.2 29.5 23.0 93 0.8 CALM 0 6 0 3 1009.9 1009.6 19.2
05/05:30am 24.2 28.0 22.8 92 0.9 SW 7 9 4 5 1009.6 1009.3 19.2
05/05:00am 24.3 29.4 22.7 91 1.1 CALM 0 0 0 0 1009.1 1008.8 19.2
05/04:30am 24.4 28.4 22.7 90 1.1 WSW 6 7 3 4 1009.1 1008.8 19.2
05/04:00am 24.4 28.4 22.8 91 1.1 SW 6 9 3 5 1009.1 1008.8 19.2
05/03:30am 24.7 28.8 22.9 90 1.2 SSW 6 9 3 5 1009.1 1008.8 19.2
05/03:00am 25.0 30.3 23.1 89 1.3 CALM 0 0 0 0 1009.2 1008.9 19.2
05/02:30am 25.1 30.3 22.8 87 1.6 CALM 0 0 0 0 1009.6 1009.3 19.2
05/02:00am 25.2 29.3 22.9 87 1.6 SSE 6 9 3 5 1009.7 1009.4 19.2
05/01:30am 25.1 28.6 22.8 87 1.6 ESE 9 15 5 8 1010.2 1009.9 19.2
05/01:00am 25.0 28.0 22.7 87 1.6 ESE 11 15 6 8 1010.5 1010.2 19.2
05/12:30am 25.0 28.1 22.9 88 1.4 ESE 11 17 6 9 1010.8 1010.5 19.2
05/12:00am 24.8 27.7 22.5 87 1.5 ESE 11 17 6 9 1011.3 1011.1 19.2
 
Date/Time
CST
Temp
°C
App
Temp
°C
Dew
Point
°C
Rel
Hum
%
Delta-T
°C
Wind Press
QNH
hPa
Press
MSL
hPa
Rain since
9am
mm
Dir  Spd
km/h
Gust
km/h
Spd
kts
Gust
kts
04/11:30pm 24.8 26.9 22.5 87 1.5 E 15 20 8 11 1012.0 1011.8 19.2
04/11:00pm 24.6 26.9 22.1 86 1.7 ESE 13 22 7 12 1012.5 1012.3 19.2
04/10:30pm 24.4 26.2 21.9 86 1.7 E 15 20 8 11 1012.6 1012.4 19.2
04/10:00pm 24.2 25.8 21.5 85 1.8 E 15 20 8 11 1012.4 1012.2 19.2
04/09:30pm 23.8 24.8 21.7 88 1.4 E 19 28 10 15 1012.4 1012.2 19.2
04/09:00pm 23.6 25.5 21.3 87 1.5 ESE 13 19 7 10 1012.2 1012.0 19.2
04/08:30pm 23.7 26.7 21.2 86 1.6 ESE 7 11 4 6 1012.2 1012.0 19.2
04/08:00pm 24.2 26.3 21.7 86 1.7 SE 13 22 7 12 1012.1 1011.9 19.2
04/07:54pm 24.6 27.7 22.1 86 1.7 ESE 9 22 5 12 1012.1 1011.9 19.2
04/07:43pm 24.8 29.0 23.2 91 1.1 ESE 6 11 3 6 1012.0 1011.8 19.0
04/07:30pm 24.9 28.6 23.3 91 1.1 SE 9 11 5 6 1011.8 1011.6 18.8
04/07:00pm 24.9 28.1 23.1 90 1.2 S 11 17 6 9 1011.1 1010.9 18.8
04/06:30pm 24.8 28.1 23.8 94 0.7 SSW 13 19 7 10 1010.4 1010.1 18.8
04/06:00pm 24.8 28.8 23.8 94 0.7 S 9 15 5 8 1010.2 1009.9 18.6
04/05:30pm 24.9 27.6 23.5 92 1.0 SW 15 24 8 13 1009.7 1009.4 18.6
04/05:19pm 24.5 26.2 23.1 92 0.9 SW 19 33 10 18 1009.5 1009.2 18.4
04/05:11pm 24.4 25.2 23.2 93 0.8 SW 24 33 13 18 1009.2 1008.9 17.8
04/05:05pm 23.9 25.0 22.3 91 1.1 SW 20 30 11 16 1009.3 1009.0 16.4
04/05:00pm 24.5 26.6 23.1 92 0.9 WSW 17 28 9 15 1009.8 1009.5 12.0
04/04:45pm 24.6 27.3 22.8 90 1.2 NE 13 26 7 14 1009.3 1009.0 8.6
04/04:41pm 25.6 28.5 22.5 83 2.1 NNE 11 15 6 8 1010.0 1009.7 4.2
04/04:30pm 25.9 27.7 22.6 82 2.2 W 17 24 9 13 1008.9 1008.6 1.0
04/04:00pm 26.5 28.9 23.0 81 2.4 SW 15 22 8 12 1007.5 1007.3 1.0
04/03:30pm 28.3 31.2 21.1 65 4.8 SE 7 13 4 7 1008.2 1007.9 0.0
04/03:00pm 28.8 31.2 23.0 71 4.0 SSW 15 26 8 14 1007.7 1007.5 0.0
04/02:30pm 29.8 32.2 22.3 64 5.1 SSW 13 22 7 12 1007.9 1007.7 0.0
04/02:00pm 32.9 35.4 21.1 50 7.9 NNE 9 13 5 7 1008.3 1008.0 0.0
04/01:30pm 33.9 35.8 21.3 47 8.5 NNW 13 22 7 12 1008.5 1008.2 0.0
04/01:00pm 33.2 36.1 21.0 48 8.2 ENE 7 13 4 7 1009.3 1009.0 0.0
04/12:30pm 33.3 36.6 21.8 51 7.8 ENE 7 15 4 8 1010.0 1009.7 0.0
04/12:00pm 32.5 35.8 21.4 52 7.5 NNW 6 9 3 5 1010.6 1010.3 0.0
04/11:30am 32.3 34.3 21.5 53 7.3 NE 13 17 7 9 1011.4 1011.2 0.0
04/11:00am 31.9 34.8 21.7 54 6.9 N 9 17 5 9 1011.7 1011.5 0.0
04/10:30am 30.8 34.3 21.9 59 6.0 NW 6 9 3 5 1012.0 1011.8 0.0
04/10:00am 30.2 33.5 22.6 63 5.2 WSW 9 13 5 7 1012.5 1012.3 0.0
04/09:30am 29.9 33.8 22.9 66 4.8 NNW 7 11 4 6 1012.6 1012.4 0.0
04/09:00am 28.9 33.4 23.6 73 3.7 NNW 6 9 3 5 1012.6 1012.4 0.0
04/08:30am 28.6 32.9 23.7 75 3.4 N 7 11 4 6 1012.5 1012.3 0.0
04/08:00am 28.1 33.0 24.3 80 2.6 N 6 9 3 5 1012.3 1012.1 0.0
04/07:30am 27.5 32.1 24.1 82 2.4 NE 7 9 4 5 1011.7 1011.5 0.0
04/07:00am 27.2 33.2 24.3 84 2.0 CALM 0 0 0 0 1011.4 1011.2 0.0
04/06:30am 26.9 32.7 24.0 84 2.0 CALM 0 0 0 0 1010.9 1010.6 0.0
04/06:00am 26.9 32.6 23.8 83 2.1 CALM 0 0 0 0 1010.5 1010.2 0.0
04/05:30am 27.0 31.7 23.9 83 2.1 NW 6 9 3 5 1010.2 1009.9 0.0
04/05:00am 27.1 31.8 24.0 83 2.1 NW 6 7 3 4 1010.1 1009.8 0.0
04/04:30am 27.2 31.9 23.9 82 2.3 NW 6 7 3 4 1009.7 1009.4 0.0
04/04:00am 27.2 31.7 23.7 81 2.4 NNW 6 9 3 5 1009.6 1009.3 0.0
04/03:30am 27.4 31.7 23.6 80 2.6 NW 7 9 4 5 1009.6 1009.3 0.0
04/03:00am 27.4 31.3 23.6 80 2.6 NW 9 11 5 6 1009.5 1009.2 0.0
04/02:30am 27.5 31.3 23.5 79 2.7 NW 9 9 5 5 1009.4 1009.1 0.0
04/02:00am 27.6 31.5 23.6 79 2.7 NW 9 11 5 6 1009.3 1009.0 0.0
04/01:30am 27.7 31.5 23.5 78 2.9 NW 9 11 5 6 1009.2 1008.9 0.0
04/01:00am 27.7 31.8 23.3 77 3.0 NNW 7 9 4 5 1009.4 1009.1 0.0
04/12:30am 27.8 31.9 23.2 76 3.1 NNW 7 9 4 5 1009.5 1009.2 0.0
04/12:00am 28.1 31.8 23.2 74 3.4 NNW 9 11 5 6 1009.6 1009.3 0.0
 
Date/Time
CST
Temp
°C
App
Temp
°C
Dew
Point
°C
Rel
Hum
%
Delta-T
°C
Wind Press
QNH
hPa
Press
MSL
hPa
Rain since
9am
mm
Dir  Spd
km/h
Gust
km/h
Spd
kts
Gust
kts
03/11:30pm 28.3 32.0 23.2 74 3.5 N 9 13 5 7 1009.6 1009.3 0.0
03/11:00pm 28.9 32.0 22.9 70 4.1 N 11 15 6 8 1009.8 1009.5 0.0
03/10:30pm 29.2 31.8 22.7 68 4.4 N 13 20 7 11 1010.0 1009.7 0.0
03/10:00pm 29.7 32.9 22.4 65 5.0 NNW 9 15 5 8 1009.8 1009.5 0.0
03/09:30pm 29.9 32.7 22.3 63 5.2 N 11 15 6 8 1009.5 1009.2 0.0
03/09:00pm 30.5 33.4 22.4 62 5.5 NNW 11 13 6 7 1009.0 1008.7 0.0
03/08:30pm 31.0 34.2 22.3 60 5.9 NNW 9 13 5 7 1008.9 1008.6 0.0
03/08:21pm 31.1 35.1 22.1 58 6.1 WSW 4 7 2 4 1009.1 1008.8 0.0
03/08:11pm 31.2 34.7 22.2 58 6.1 NNW 7 13 4 7 1009.0 1008.7 0.0
03/08:00pm 31.2 33.4 21.9 57 6.3 NNW 13 22 7 12 1008.5 1008.2 0.0
03/07:56pm 31.3 33.2 22.0 57 6.3 NNW 15 22 8 12 1008.4 1008.1 0.0
03/07:30pm 31.9 33.8 22.0 55 6.7 NNW 15 20 8 11 1007.7 1007.5 0.0
03/07:29pm 32.0 34.1 22.4 57 6.6 NNW 15 20 8 11 1007.6 1007.4 0.0
03/07:00pm 32.4 33.5 21.9 54 7.1 NW 19 24 10 13 1007.1 1006.9 0.0
03/06:30pm 33.5 35.4 22.0 51 7.9 NNW 15 24 8 13 1006.5 1006.3 0.0
03/06:00pm 35.3 36.4 18.8 37 10.9 NNW 11 13 6 7 1005.8 1005.6 0.0
03/05:30pm 36.1 36.7 18.7 36 11.5 NW 13 15 7 8 1005.5 1005.3 0.0
03/05:00pm 36.2 37.2 17.8 33 12.0 W 9 19 5 10 1005.1 1004.9 0.0
03/04:30pm 35.7 36.7 18.7 36 11.2 W 11 20 6 11 1005.0 1004.8 0.0
03/04:00pm 35.6 37.2 19.1 38 10.9 WNW 9 17 5 9 1005.0 1004.8 0.0
03/03:30pm 35.6 36.8 19.1 38 10.9 NNW 11 17 6 9 1005.0 1004.8 0.0
03/03:00pm 35.6 36.6 19.5 38 10.7 NW 13 22 7 12 1005.3 1005.1 0.0
03/02:30pm 35.3 36.9 19.2 38 10.7 NW 9 19 5 10 1005.5 1005.3 0.0
03/02:00pm 35.5 36.7 19.0 37 10.9 NNW 11 20 6 11 1005.9 1005.7 0.0
03/01:30pm 35.8 37.3 18.8 36 11.2 E 9 17 5 9 1006.5 1006.3 0.0
03/01:00pm 34.6 36.5 19.0 39 10.3 N 7 15 4 8 1007.2 1007.0 0.0
03/12:30pm 35.0 36.2 19.0 39 10.6 NE 11 17 6 9 1007.8 1007.6 0.0
03/12:00pm 34.3 35.0 18.8 40 10.2 ENE 13 20 7 11 1008.4 1008.1 0.0
03/11:30am 33.3 35.5 20.5 47 8.6 NE 9 19 5 10 1009.0 1008.7 0.0
03/11:00am 32.7 33.9 19.9 46 8.5 ENE 13 17 7 9 1009.3 1009.0 0.0
03/10:30am 32.2 32.6 19.8 48 8.2 ENE 17 20 9 11 1009.8 1009.5 0.0
03/10:00am 31.9 34.0 20.2 50 7.8 E 9 19 5 10 1010.2 1009.9 0.0
03/09:30am 31.0 34.1 21.5 57 6.4 NE 7 13 4 7 1010.4 1010.1 0.0
03/09:00am 29.8 32.2 22.3 64 5.1 NE 13 17 7 9 1010.3 1010.0 0.0
03/08:30am 29.1 32.0 23.1 70 4.1 ENE 13 17 7 9 1010.1 1009.8 0.0
03/08:00am 27.5 31.4 22.9 76 3.1 E 7 9 4 5 1010.3 1010.0 0.0
03/07:30am 26.1 29.9 22.8 82 2.2 E 7 9 4 5 1010.2 1009.9 0.0
03/07:00am 25.6 30.2 22.5 83 2.1 WSW 2 6 1 3 1010.1 1009.8 0.0
03/06:30am 25.7 29.4 22.2 81 2.4 W 6 7 3 4 1009.6 1009.3 0.0
03/06:00am 26.2 29.8 22.3 79 2.6 W 7 9 4 5 1009.5 1009.2 0.0
03/05:30am 26.0 28.9 22.5 81 2.4 WSW 11 11 6 6 1009.5 1009.2 0.0
03/05:00am 26.3 29.5 21.7 76 3.1 WSW 7 9 4 5 1009.1 1008.8 0.0
03/04:30am 26.2 30.1 21.8 77 2.9 NE 4 7 2 4 1008.4 1008.1 0.0
03/04:00am 26.2 29.7 22.1 78 2.7 N 7 11 4 6 1008.1 1007.8 0.0

Other formats

Comma delimited format used in spreadsheet applications
http://www.bom.gov.au/fwo/IDD60801/IDD60801.94137.axf

JavaScript Object Notation format (JSON) in row-major order
http://www.bom.gov.au/fwo/IDD60801/IDD60801.94137.json

Data quality

Most of these data are generated automatically and are frequently updated. Quality checks on data are not normally performed. It is possible for incorrect values to appear. Refer to information at About Latest Weather Observations and please check the disclaimer before using these data.